createdAt,value
2018-02-04T00:00:26.237Z,2.85
2018-02-04T00:01:26.282Z,2.81
2018-02-04T00:02:26.201Z,2.82
2018-02-04T00:03:26.279Z,2.84
2018-02-04T00:04:26.232Z,2.8
2018-02-04T00:05:26.076Z,2.8
2018-02-04T00:06:26.097Z,2.8
2018-02-04T00:07:26.140Z,2.79
2018-02-04T00:08:26.241Z,2.76
2018-02-04T00:09:26.133Z,2.78
2018-02-04T00:10:26.227Z,2.74
2018-02-04T00:11:25.965Z,2.78
2018-02-04T00:12:26.752Z,2.75
2018-02-04T00:13:26.337Z,2.74
2018-02-04T00:14:26.373Z,2.73
2018-02-04T00:15:26.199Z,2.72
2018-02-04T00:16:26.091Z,2.72
2018-02-04T00:17:26.188Z,2.68
2018-02-04T00:18:26.232Z,2.69
2018-02-04T00:19:26.135Z,2.68
2018-02-04T00:20:26.321Z,2.67
2018-02-04T00:21:26.239Z,2.67
2018-02-04T00:22:26.316Z,2.67
2018-02-04T00:23:26.295Z,2.66
2018-02-04T00:24:26.321Z,2.67
2018-02-04T00:25:26.256Z,2.63
2018-02-04T00:26:26.223Z,2.67
2018-02-04T00:27:26.157Z,2.63
2018-02-04T00:28:26.341Z,2.66
2018-02-04T00:29:26.580Z,2.65
2018-02-04T00:30:26.486Z,2.68
2018-02-04T00:31:26.392Z,2.68
2018-02-04T00:32:26.336Z,2.63
2018-02-04T00:33:26.274Z,2.68
2018-02-04T00:34:26.310Z,2.63
2018-02-04T00:35:26.416Z,2.61
2018-02-04T00:36:26.242Z,2.61
2018-02-04T00:37:26.313Z,2.57
2018-02-04T00:38:26.353Z,2.57
2018-02-04T00:39:26.326Z,2.56
2018-02-04T00:40:26.349Z,2.55
2018-02-04T00:41:26.356Z,2.55
2018-02-04T00:42:26.297Z,2.52
2018-02-04T00:43:26.381Z,2.52
2018-02-04T00:44:26.364Z,2.51
2018-02-04T00:45:26.473Z,2.5
2018-02-04T00:46:26.409Z,2.49
2018-02-04T00:47:26.385Z,2.49
2018-02-04T00:48:26.220Z,2.45
2018-02-04T00:49:26.423Z,2.45
2018-02-04T00:50:26.291Z,2.44
2018-02-04T00:51:26.246Z,2.43
2018-02-04T00:52:26.287Z,2.4
2018-02-04T00:53:26.301Z,2.43
2018-02-04T00:54:26.375Z,2.44
2018-02-04T00:55:26.443Z,2.44
2018-02-04T00:56:26.232Z,2.45
2018-02-04T00:57:26.346Z,2.46
2018-02-04T00:58:26.221Z,2.45
2018-02-04T00:59:26.419Z,2.44
2018-02-04T01:00:26.489Z,2.45
2018-02-04T01:01:26.564Z,2.44
2018-02-04T01:02:26.512Z,2.49
2018-02-04T01:03:26.446Z,2.5
2018-02-04T01:04:26.467Z,2.47
2018-02-04T01:05:26.532Z,2.5
2018-02-04T01:06:26.633Z,2.51
2018-02-04T01:07:26.393Z,2.55
2018-02-04T01:08:26.364Z,2.51
2018-02-04T01:09:26.350Z,2.53
2018-02-04T01:10:26.477Z,2.52
2018-02-04T01:11:26.539Z,2.54
2018-02-04T01:12:26.559Z,2.54
2018-02-04T01:13:26.552Z,2.53
2018-02-04T01:14:26.453Z,2.51
2018-02-04T01:15:26.605Z,2.49
2018-02-04T01:16:27.124Z,2.49
2018-02-04T01:17:26.514Z,2.49
2018-02-04T01:18:26.574Z,2.48
2018-02-04T01:19:26.533Z,2.45
2018-02-04T01:20:26.472Z,2.46
2018-02-04T01:21:26.812Z,2.43
2018-02-04T01:22:26.500Z,2.41
2018-02-04T01:23:26.570Z,2.42
2018-02-04T01:24:26.419Z,2.43
2018-02-04T01:25:26.486Z,2.43
2018-02-04T01:26:26.387Z,2.43
2018-02-04T01:27:26.362Z,2.44
2018-02-04T01:28:26.505Z,2.41
2018-02-04T01:29:26.262Z,2.41
2018-02-04T01:30:26.541Z,2.38
2018-02-04T01:31:26.629Z,2.41
2018-02-04T01:32:26.533Z,2.38
2018-02-04T01:33:26.632Z,2.43
2018-02-04T01:34:26.581Z,2.43
2018-02-04T01:35:26.430Z,2.42
2018-02-04T01:36:26.698Z,2.43
2018-02-04T01:37:26.656Z,2.43
2018-02-04T01:38:26.642Z,2.39
2018-02-04T01:39:26.690Z,2.43
2018-02-04T01:40:26.540Z,2.39
2018-02-04T01:41:26.442Z,2.39
2018-02-04T01:42:26.399Z,2.38
2018-02-04T01:43:26.615Z,2.42
2018-02-04T01:44:26.611Z,2.42
2018-02-04T01:45:26.722Z,2.38
2018-02-04T01:46:26.698Z,2.38
2018-02-04T01:47:26.496Z,2.39
2018-02-04T01:48:26.623Z,2.41
2018-02-04T01:49:26.478Z,2.39
2018-02-04T01:50:26.463Z,2.41
2018-02-04T01:51:26.696Z,2.38
2018-02-04T01:52:26.658Z,2.38
2018-02-04T01:53:26.529Z,2.37
2018-02-04T01:54:26.471Z,2.38
2018-02-04T01:55:26.660Z,2.36
2018-02-04T01:56:26.664Z,2.35
2018-02-04T01:57:26.588Z,2.32
2018-02-04T01:58:26.568Z,2.32
2018-02-04T01:59:26.488Z,2.31
2018-02-04T02:00:26.649Z,2.3
2018-02-04T02:01:26.785Z,2.3
2018-02-04T02:02:26.647Z,2.26
2018-02-04T02:03:26.649Z,2.31
2018-02-04T02:04:26.624Z,2.31
2018-02-04T02:05:26.724Z,2.32
2018-02-04T02:06:26.832Z,2.32
2018-02-04T02:07:26.525Z,2.31
2018-02-04T02:08:26.781Z,2.27
2018-02-04T02:09:26.711Z,2.26
2018-02-04T02:10:26.660Z,2.26
2018-02-04T02:11:26.802Z,2.25
2018-02-04T02:12:26.663Z,2.26
2018-02-04T02:13:26.738Z,2.25
2018-02-04T02:14:26.820Z,2.26
2018-02-04T02:15:26.651Z,2.26
2018-02-04T02:16:26.671Z,2.25
2018-02-04T02:17:26.716Z,2.24
2018-02-04T02:18:26.734Z,2.25
2018-02-04T02:19:26.754Z,2.26
2018-02-04T02:20:26.630Z,2.26
2018-02-04T02:21:26.472Z,2.27
2018-02-04T02:22:26.536Z,2.28
2018-02-04T02:23:26.658Z,2.28
2018-02-04T02:24:26.634Z,2.26
2018-02-04T02:25:26.615Z,2.27
2018-02-04T02:26:26.649Z,2.32
2018-02-04T02:27:26.747Z,2.27
2018-02-04T02:28:26.737Z,2.31
2018-02-04T02:29:26.700Z,2.32
2018-02-04T02:30:26.778Z,2.32
2018-02-04T02:31:27.043Z,2.32
2018-02-04T02:32:26.737Z,2.32
2018-02-04T02:33:26.809Z,2.32
2018-02-04T02:34:26.868Z,2.33
2018-02-04T02:35:26.740Z,2.33
2018-02-04T02:36:26.774Z,2.32
2018-02-04T02:37:26.925Z,2.32
2018-02-04T02:38:26.818Z,2.33
2018-02-04T02:39:26.712Z,2.33
2018-02-04T02:40:26.801Z,2.36
2018-02-04T02:41:26.892Z,2.36
2018-02-04T02:42:26.823Z,2.36
2018-02-04T02:43:26.777Z,2.38
2018-02-04T02:44:26.851Z,2.36
2018-02-04T02:45:26.753Z,2.35
2018-02-04T02:46:26.721Z,2.36
2018-02-04T02:47:26.862Z,2.37
2018-02-04T02:48:26.654Z,2.38
2018-02-04T02:49:26.622Z,2.36
2018-02-04T02:50:26.845Z,2.37
2018-02-04T02:51:26.662Z,2.33
2018-02-04T02:52:27.073Z,2.38
2018-02-04T02:53:26.651Z,2.36
2018-02-04T02:54:26.830Z,2.37
2018-02-04T02:55:26.766Z,2.37
2018-02-04T02:56:26.741Z,2.37
2018-02-04T02:57:26.861Z,2.37
2018-02-04T02:58:26.663Z,2.37
2018-02-04T02:59:26.783Z,2.38
2018-02-04T03:00:27.051Z,2.39
2018-02-04T03:01:26.107Z,2.41
2018-02-04T03:02:26.116Z,2.39
2018-02-04T03:03:26.082Z,2.38
2018-02-04T03:04:26.101Z,2.38
2018-02-04T03:05:26.057Z,2.38
2018-02-04T03:06:25.979Z,2.38
2018-02-04T03:07:26.120Z,2.38
2018-02-04T03:08:26.069Z,2.34
2018-02-04T03:09:25.921Z,2.38
2018-02-04T03:10:25.914Z,2.39
2018-02-04T03:11:26.027Z,2.38
2018-02-04T03:12:26.391Z,2.4
2018-02-04T03:13:26.717Z,2.41
2018-02-04T03:14:26.153Z,2.42
2018-02-04T03:15:26.117Z,2.42
2018-02-04T03:16:26.174Z,2.43
2018-02-04T03:17:26.107Z,2.43
2018-02-04T03:18:26.149Z,2.43
2018-02-04T03:19:26.122Z,2.43
2018-02-04T03:20:25.893Z,2.41
2018-02-04T03:21:26.069Z,2.42
2018-02-04T03:22:26.112Z,2.42
2018-02-04T03:23:26.222Z,2.41
2018-02-04T03:24:26.255Z,2.38
2018-02-04T03:25:26.034Z,2.4
2018-02-04T03:26:26.051Z,2.41
2018-02-04T03:27:26.041Z,2.38
2018-02-04T03:28:26.016Z,2.42
2018-02-04T03:29:26.343Z,2.38
2018-02-04T03:30:26.132Z,2.38
2018-02-04T03:31:26.170Z,2.42
2018-02-04T03:32:26.261Z,2.38
2018-02-04T03:33:26.209Z,2.38
2018-02-04T03:34:26.223Z,2.38
2018-02-04T03:35:27.266Z,2.38
2018-02-04T03:36:26.648Z,2.38
2018-02-04T03:37:26.167Z,2.38
2018-02-04T03:38:26.316Z,2.38
2018-02-04T03:39:26.080Z,2.41
2018-02-04T03:40:26.205Z,2.38
2018-02-04T03:41:26.238Z,2.37
2018-02-04T03:42:26.212Z,2.34
2018-02-04T03:43:26.006Z,2.38
2018-02-04T03:44:26.317Z,2.38
2018-02-04T03:45:26.192Z,2.38
2018-02-04T03:46:26.231Z,2.37
2018-02-04T03:47:26.173Z,2.37
2018-02-04T03:48:26.186Z,2.38
2018-02-04T03:49:26.101Z,2.38
2018-02-04T03:50:26.046Z,2.37
2018-02-04T03:51:26.231Z,2.37
2018-02-04T03:52:26.130Z,2.38
2018-02-04T03:53:26.178Z,2.38
2018-02-04T03:54:26.132Z,2.35
2018-02-04T03:55:26.296Z,2.34
2018-02-04T03:56:26.272Z,2.36
2018-02-04T03:57:26.016Z,2.37
2018-02-04T03:58:26.238Z,2.37
2018-02-04T03:59:26.169Z,2.39
2018-02-04T04:00:26.285Z,2.34
2018-02-04T04:01:26.094Z,2.38
2018-02-04T04:02:26.062Z,2.38
2018-02-04T04:03:26.296Z,2.41
2018-02-04T04:04:26.306Z,2.38
2018-02-04T04:05:26.268Z,2.41
2018-02-04T04:06:26.105Z,2.43
2018-02-04T04:07:26.187Z,2.42
2018-02-04T04:08:26.181Z,2.43
2018-02-04T04:09:26.201Z,2.44
2018-02-04T04:10:26.217Z,2.43
2018-02-04T04:11:26.340Z,2.43
2018-02-04T04:12:26.186Z,2.43
2018-02-04T04:13:26.267Z,2.41
2018-02-04T04:14:26.287Z,2.42
2018-02-04T04:15:26.236Z,2.43
2018-02-04T04:16:26.104Z,2.42
2018-02-04T04:17:26.291Z,2.41
2018-02-04T04:18:26.389Z,2.38
2018-02-04T04:19:26.018Z,2.38
2018-02-04T04:20:26.186Z,2.43
2018-02-04T04:21:26.229Z,2.38
2018-02-04T04:22:26.199Z,2.41
2018-02-04T04:23:26.102Z,2.4
2018-02-04T04:24:26.031Z,2.43
2018-02-04T04:25:26.202Z,2.42
2018-02-04T04:26:26.075Z,2.43
2018-02-04T04:27:25.868Z,2.44
2018-02-04T04:28:26.207Z,2.43
2018-02-04T04:29:26.246Z,2.43
2018-02-04T04:30:26.242Z,2.43
2018-02-04T04:31:26.152Z,2.43
2018-02-04T04:32:26.268Z,2.39
2018-02-04T04:33:26.171Z,2.42
2018-02-04T04:34:26.209Z,2.42
2018-02-04T04:35:26.442Z,2.43
2018-02-04T04:38:26.334Z,2.43
2018-02-04T04:39:26.213Z,2.42
2018-02-04T04:40:26.230Z,2.43
2018-02-04T04:41:26.244Z,2.42
2018-02-04T04:42:26.245Z,2.42
2018-02-04T04:43:26.437Z,2.42
2018-02-04T04:44:26.156Z,2.42
2018-02-04T04:45:26.365Z,2.43
2018-02-04T04:46:26.385Z,2.43
2018-02-04T04:47:26.371Z,2.43
2018-02-04T04:48:26.310Z,2.43
2018-02-04T04:49:26.241Z,2.43
2018-02-04T04:50:26.253Z,2.42
2018-02-04T04:51:26.249Z,2.42
2018-02-04T04:52:26.290Z,2.42
2018-02-04T04:53:26.119Z,2.39
2018-02-04T04:54:26.317Z,2.42
2018-02-04T04:55:26.300Z,2.39
2018-02-04T04:56:26.126Z,2.42
2018-02-04T04:57:26.188Z,2.38
2018-02-04T04:58:26.229Z,2.41
2018-02-04T04:59:26.344Z,2.41
2018-02-04T05:00:26.334Z,2.38
2018-02-04T05:01:26.189Z,2.42
2018-02-04T05:02:26.230Z,2.38
2018-02-04T05:03:26.311Z,2.41
2018-02-04T05:04:26.277Z,2.34
2018-02-04T05:05:26.311Z,2.33
2018-02-04T05:06:26.231Z,2.32
2018-02-04T05:07:26.326Z,2.3
2018-02-04T05:08:26.567Z,2.29
2018-02-04T05:09:26.438Z,2.29
2018-02-04T05:10:26.593Z,2.26
2018-02-04T05:11:26.346Z,2.29
2018-02-04T05:12:26.428Z,2.27
2018-02-04T05:14:26.521Z,2.26
2018-02-04T05:15:26.366Z,2.26
2018-02-04T05:16:26.426Z,2.29
2018-02-04T05:17:26.402Z,2.26
2018-02-04T05:18:26.231Z,2.27
2018-02-04T05:19:26.354Z,2.27
2018-02-04T05:20:26.412Z,2.31
2018-02-04T05:21:26.381Z,2.31
2018-02-04T05:22:26.364Z,2.32
2018-02-04T05:23:26.472Z,2.28
2018-02-04T05:24:26.440Z,2.3
2018-02-04T05:25:26.908Z,2.31
2018-02-04T05:26:26.454Z,2.33
2018-02-04T05:27:26.369Z,2.32
2018-02-04T05:28:26.234Z,2.32
2018-02-04T05:29:26.368Z,2.36
2018-02-04T05:30:26.203Z,2.38
2018-02-04T05:31:26.408Z,2.36
2018-02-04T05:32:26.425Z,2.38
2018-02-04T05:33:26.444Z,2.37
2018-02-04T05:34:26.655Z,2.32
2018-02-04T05:35:26.456Z,2.36
2018-02-04T05:36:26.544Z,2.37
2018-02-04T05:37:26.551Z,2.38
2018-02-04T05:38:26.431Z,2.38
2018-02-04T05:39:26.572Z,2.38
2018-02-04T05:40:26.605Z,2.41
2018-02-04T05:41:26.441Z,2.38
2018-02-04T05:42:26.476Z,2.38
2018-02-04T05:43:26.397Z,2.39
2018-02-04T05:44:26.588Z,2.4
2018-02-04T05:45:26.717Z,2.43
2018-02-04T05:46:26.562Z,2.42
2018-02-04T05:47:26.458Z,2.43
2018-02-04T05:48:26.468Z,2.43
2018-02-04T05:49:26.491Z,2.4
2018-02-04T05:50:26.606Z,2.43
2018-02-04T05:51:26.383Z,2.43
2018-02-04T05:52:26.531Z,2.43
2018-02-04T05:53:26.509Z,2.43
2018-02-04T05:54:26.684Z,2.46
2018-02-04T05:55:26.575Z,2.43
2018-02-04T05:56:26.495Z,2.43
2018-02-04T05:57:26.703Z,2.42
2018-02-04T05:58:26.477Z,2.43
2018-02-04T05:59:26.549Z,2.43
2018-02-04T06:00:26.899Z,2.43
2018-02-04T06:01:26.386Z,2.44
2018-02-04T06:02:26.606Z,2.42
2018-02-04T06:03:26.536Z,2.44
2018-02-04T06:04:26.625Z,2.42
2018-02-04T06:05:26.619Z,2.43
2018-02-04T06:06:26.919Z,2.4
2018-02-04T06:07:26.695Z,2.42
2018-02-04T06:08:26.681Z,2.39
2018-02-04T06:09:26.621Z,2.41
2018-02-04T06:10:26.641Z,2.41
2018-02-04T06:11:26.593Z,2.42
2018-02-04T06:12:26.618Z,2.43
2018-02-04T06:13:26.439Z,2.43
2018-02-04T06:14:26.411Z,2.43
2018-02-04T06:15:26.493Z,2.43
2018-02-04T06:16:26.530Z,2.44
2018-02-04T06:17:26.469Z,2.43
2018-02-04T06:18:26.668Z,2.43
2018-02-04T06:19:26.601Z,2.43
2018-02-04T06:20:26.619Z,2.44
2018-02-04T06:21:26.455Z,2.43
2018-02-04T06:22:26.507Z,2.43
2018-02-04T06:23:26.593Z,2.44
2018-02-04T06:24:26.613Z,2.43
2018-02-04T06:25:27.507Z,2.41
2018-02-04T06:26:26.717Z,2.44
2018-02-04T06:27:26.612Z,2.43
2018-02-04T06:28:26.493Z,2.43
2018-02-04T06:29:26.534Z,2.44
2018-02-04T06:30:26.484Z,2.44
2018-02-04T06:31:26.594Z,2.46
2018-02-04T06:32:26.529Z,2.45
2018-02-04T06:33:26.666Z,2.44
2018-02-04T06:34:26.498Z,2.43
2018-02-04T06:35:26.893Z,2.45
2018-02-04T06:36:26.523Z,2.44
2018-02-04T06:37:26.761Z,2.47
2018-02-04T06:38:26.851Z,2.43
2018-02-04T06:39:26.677Z,2.45
2018-02-04T06:40:26.727Z,2.45
2018-02-04T06:41:26.825Z,2.44
2018-02-04T06:42:26.842Z,2.44
2018-02-04T06:43:26.880Z,2.43
2018-02-04T06:44:26.631Z,2.44
2018-02-04T06:45:26.886Z,2.45
2018-02-04T06:46:26.816Z,2.43
2018-02-04T06:47:26.718Z,2.43
2018-02-04T06:48:26.679Z,2.44
2018-02-04T06:49:26.974Z,2.42
2018-02-04T06:50:26.759Z,2.43
2018-02-04T06:51:26.798Z,2.42
2018-02-04T06:52:26.668Z,2.42
2018-02-04T06:53:26.679Z,2.41
2018-02-04T06:54:26.566Z,2.38
2018-02-04T06:55:26.691Z,2.4
2018-02-04T06:56:26.765Z,2.41
2018-02-04T06:57:26.828Z,2.39
2018-02-04T06:58:26.742Z,2.38
2018-02-04T06:59:27.096Z,2.41
2018-02-04T07:00:26.605Z,2.38
2018-02-04T07:01:26.908Z,2.41
2018-02-04T07:02:26.590Z,2.43
2018-02-04T07:03:26.674Z,2.43
2018-02-04T07:04:26.797Z,2.45
2018-02-04T07:05:26.818Z,2.44
2018-02-04T07:06:26.788Z,2.45
2018-02-04T07:07:26.689Z,2.49
2018-02-04T07:08:26.870Z,2.46
2018-02-04T07:09:26.834Z,2.48
2018-02-04T07:10:26.849Z,2.46
2018-02-04T07:11:26.899Z,2.49
2018-02-04T07:12:27.040Z,2.49
2018-02-04T07:13:26.629Z,2.5
2018-02-04T07:14:26.872Z,2.5
2018-02-04T07:15:27.020Z,2.52
2018-02-04T07:16:26.920Z,2.54
2018-02-04T07:17:26.867Z,2.56
2018-02-04T07:18:26.685Z,2.56
2018-02-04T07:19:26.861Z,2.53
2018-02-04T07:20:26.873Z,2.55
2018-02-04T07:21:26.529Z,2.55
2018-02-04T07:22:26.699Z,2.55
2018-02-04T07:23:26.754Z,2.55
2018-02-04T07:24:26.802Z,2.6
2018-02-04T07:25:26.999Z,2.6
2018-02-04T07:26:26.892Z,2.56
2018-02-04T07:27:26.660Z,2.56
2018-02-04T07:28:26.887Z,2.56
2018-02-04T07:29:26.659Z,2.56
2018-02-04T07:30:26.867Z,2.55
2018-02-04T07:31:26.597Z,2.55
2018-02-04T07:32:26.914Z,2.52
2018-02-04T07:33:26.916Z,2.52
2018-02-04T07:34:26.616Z,2.51
2018-02-04T07:35:26.895Z,2.51
2018-02-04T07:36:25.746Z,2.52
2018-02-04T07:37:25.961Z,2.52
2018-02-04T07:38:25.935Z,2.53
2018-02-04T07:39:25.910Z,2.55
2018-02-04T07:40:26.088Z,2.55
2018-02-04T07:41:25.929Z,2.55
2018-02-04T07:42:25.869Z,2.55
2018-02-04T07:43:25.926Z,2.52
2018-02-04T07:44:25.884Z,2.55
2018-02-04T07:45:26.058Z,2.55
2018-02-04T07:46:25.844Z,2.55
2018-02-04T07:47:25.865Z,2.52
2018-02-04T07:48:26.192Z,2.55
2018-02-04T07:49:25.917Z,2.52
2018-02-04T07:50:25.770Z,2.51
2018-02-04T07:51:25.896Z,2.52
2018-02-04T07:52:25.668Z,2.54
2018-02-04T07:53:26.097Z,2.52
2018-02-04T07:54:25.882Z,2.52
2018-02-04T07:55:25.934Z,2.51
2018-02-04T07:56:25.874Z,2.51
2018-02-04T07:57:25.947Z,2.51
2018-02-04T07:58:26.066Z,2.52
2018-02-04T07:59:25.881Z,2.52
2018-02-04T08:00:25.692Z,2.51
2018-02-04T08:01:25.932Z,2.51
2018-02-04T08:02:26.124Z,2.49
2018-02-04T08:03:26.002Z,2.51
2018-02-04T08:04:25.792Z,2.51
2018-02-04T08:05:26.003Z,2.53
2018-02-04T08:06:25.938Z,2.49
2018-02-04T08:07:25.750Z,2.49
2018-02-04T08:08:26.093Z,2.49
2018-02-04T08:09:25.948Z,2.5
2018-02-04T08:10:25.949Z,2.46
2018-02-04T08:11:25.769Z,2.5
2018-02-04T08:12:26.036Z,2.49
2018-02-04T08:13:26.131Z,2.48
2018-02-04T08:14:26.179Z,2.45
2018-02-04T08:15:25.872Z,2.43
2018-02-04T08:16:25.949Z,2.44
2018-02-04T08:17:26.102Z,2.4
2018-02-04T08:18:26.115Z,2.4
2018-02-04T08:19:26.146Z,2.42
2018-02-04T08:20:25.935Z,2.43
2018-02-04T08:21:26.070Z,2.37
2018-02-04T08:22:25.741Z,2.37
2018-02-04T08:23:26.037Z,2.37
2018-02-04T08:24:26.073Z,2.34
2018-02-04T08:25:26.009Z,2.38
2018-02-04T08:26:26.068Z,2.36
2018-02-04T08:27:26.037Z,2.38
2018-02-04T08:28:25.998Z,2.38
2018-02-04T08:29:25.719Z,2.38
2018-02-04T08:30:25.931Z,2.38
2018-02-04T08:31:26.005Z,2.38
2018-02-04T08:32:26.126Z,2.39
2018-02-04T08:33:26.027Z,2.43
2018-02-04T08:34:26.014Z,2.39
2018-02-04T08:35:25.841Z,2.4
2018-02-04T08:36:25.900Z,2.43
2018-02-04T08:37:25.979Z,2.4
2018-02-04T08:38:25.972Z,2.44
2018-02-04T08:39:25.983Z,2.39
2018-02-04T08:40:26.402Z,2.35
2018-02-04T08:41:25.978Z,2.26
2018-02-04T08:42:25.782Z,2.29
2018-02-04T08:43:25.976Z,2.26
2018-02-04T08:44:25.983Z,2.25
2018-02-04T08:45:26.363Z,2.21
2018-02-04T08:46:25.866Z,2.24
2018-02-04T08:47:26.088Z,2.19
2018-02-04T08:48:25.844Z,2.14
2018-02-04T08:49:26.015Z,2.12
2018-02-04T08:50:25.949Z,2.11
2018-02-04T08:51:25.874Z,2.11
2018-02-04T08:52:25.967Z,2.08
2018-02-04T08:53:26.049Z,2.09
2018-02-04T08:54:25.920Z,2.01
2018-02-04T08:55:26.051Z,2
2018-02-04T08:56:25.854Z,1.98
2018-02-04T08:57:25.953Z,1.96
2018-02-04T08:58:26.115Z,1.95
2018-02-04T08:59:25.832Z,1.93
2018-02-04T09:00:25.953Z,1.94
2018-02-04T09:01:25.976Z,1.94
2018-02-04T09:02:26.242Z,1.94
2018-02-04T09:03:25.959Z,1.95
2018-02-04T09:04:26.011Z,1.91
2018-02-04T09:05:25.975Z,1.95
2018-02-04T09:06:25.781Z,1.92
2018-02-04T09:07:27.172Z,1.9
2018-02-04T09:08:26.052Z,1.89
2018-02-04T09:09:26.101Z,1.91
2018-02-04T09:10:25.964Z,1.9
2018-02-04T09:11:26.278Z,1.9
2018-02-04T09:12:26.218Z,1.93
2018-02-04T09:13:25.860Z,1.9
2018-02-04T09:14:25.991Z,1.89
2018-02-04T09:15:26.068Z,1.91
2018-02-04T09:16:26.028Z,1.89
2018-02-04T09:17:26.082Z,1.9
2018-02-04T09:18:26.068Z,1.93
2018-02-04T09:19:26.019Z,1.92
2018-02-04T09:20:26.275Z,1.94
2018-02-04T09:21:26.135Z,1.93
2018-02-04T09:22:26.295Z,1.88
2018-02-04T09:23:27.867Z,1.85
2018-02-04T09:24:26.165Z,1.68
2018-02-04T09:25:26.224Z,1.67
2018-02-04T09:26:26.054Z,1.67
2018-02-04T09:27:26.231Z,1.67
2018-02-04T09:28:25.990Z,1.68
2018-02-04T09:29:26.114Z,1.69
2018-02-04T09:30:26.187Z,1.71
2018-02-04T09:31:26.112Z,1.74
2018-02-04T09:32:27.370Z,1.76
2018-02-04T09:33:26.494Z,1.73
2018-02-04T09:34:26.259Z,1.75
2018-02-04T09:35:26.235Z,1.77
2018-02-04T09:36:26.220Z,1.77
2018-02-04T09:37:26.092Z,1.8
2018-02-04T09:38:26.181Z,1.8
2018-02-04T09:39:26.226Z,1.76
2018-02-04T09:40:26.276Z,1.75
2018-02-04T09:41:25.996Z,1.74
2018-02-04T09:42:26.157Z,1.68
2018-02-04T09:43:26.204Z,1.7
2018-02-04T09:44:26.219Z,1.74
2018-02-04T09:45:26.114Z,1.74
2018-02-04T09:46:26.226Z,1.76
2018-02-04T09:47:26.062Z,1.76
2018-02-04T09:48:26.170Z,1.8
2018-02-04T09:49:26.290Z,1.78
2018-02-04T09:50:26.219Z,1.81
2018-02-04T09:51:26.067Z,1.8
2018-02-04T09:52:26.141Z,1.79
2018-02-04T09:53:26.158Z,1.79
2018-02-04T09:54:26.223Z,1.78
2018-02-04T09:55:26.537Z,1.79
2018-02-04T09:56:26.227Z,1.78
2018-02-04T09:57:26.477Z,1.81
2018-02-04T09:58:26.340Z,1.78
2018-02-04T09:59:26.327Z,1.77
2018-02-04T10:00:26.010Z,1.78
2018-02-04T10:01:26.093Z,1.79
2018-02-04T10:02:26.134Z,1.79
2018-02-04T10:03:26.206Z,1.73
2018-02-04T10:04:26.199Z,1.66
2018-02-04T10:05:26.707Z,1.72
2018-02-04T10:06:26.702Z,1.71
2018-02-04T10:07:26.832Z,1.75
2018-02-04T10:08:26.226Z,1.75
2018-02-04T10:09:26.149Z,1.77
2018-02-04T10:10:25.964Z,1.77
2018-02-04T10:11:26.173Z,1.75
2018-02-04T10:12:32.232Z,1.73
2018-02-04T10:13:25.959Z,1.7
2018-02-04T10:14:26.318Z,1.73
2018-02-04T10:15:26.005Z,1.76
2018-02-04T10:16:25.940Z,1.74
2018-02-04T10:17:26.074Z,1.69
2018-02-04T10:18:26.246Z,1.69
2018-02-04T10:19:26.055Z,1.66
2018-02-04T10:20:26.168Z,1.65
2018-02-04T10:21:26.251Z,1.65
2018-02-04T10:22:26.115Z,1.6
2018-02-04T10:23:26.245Z,1.62
2018-02-04T10:24:34.970Z,1.66
2018-02-04T10:25:26.278Z,1.61
2018-02-04T10:26:26.881Z,1.53
2018-02-04T10:27:25.963Z,1.41
2018-02-04T10:28:26.253Z,1.33
2018-02-04T10:29:26.235Z,1.21
2018-02-04T10:30:26.134Z,1.16
2018-02-04T10:31:26.163Z,1.11
2018-02-04T10:32:26.146Z,1.18
2018-02-04T10:33:30.429Z,1.18
2018-02-04T10:34:26.197Z,1.12
2018-02-04T10:35:26.245Z,1.08
2018-02-04T10:36:26.259Z,1.03
2018-02-04T10:37:26.107Z,1.05
2018-02-04T10:38:26.298Z,1.03
2018-02-04T10:39:26.310Z,1
2018-02-04T10:40:26.303Z,1.03
2018-02-04T10:41:26.201Z,1.01
2018-02-04T10:42:26.220Z,1
2018-02-04T10:43:26.279Z,0.97
2018-02-04T10:44:26.298Z,0.94
2018-02-04T10:45:26.419Z,1.02
2018-02-04T10:46:26.281Z,1
2018-02-04T10:47:26.276Z,0.99
2018-02-04T10:48:26.339Z,1
2018-02-04T10:49:26.364Z,0.96
2018-02-04T10:50:26.416Z,1
2018-02-04T10:51:26.398Z,1
2018-02-04T10:52:26.356Z,1
2018-02-04T10:53:26.236Z,1.06
2018-02-04T10:54:26.382Z,1.06
2018-02-04T10:55:26.335Z,1.07
2018-02-04T10:56:26.330Z,1.07
2018-02-04T10:57:26.323Z,1.06
2018-02-04T10:58:26.293Z,1.06
2018-02-04T10:59:26.230Z,1.12
2018-02-04T11:00:26.243Z,1.09
2018-02-04T11:01:26.130Z,1.14
2018-02-04T11:02:26.182Z,1.18
2018-02-04T11:03:26.247Z,1.21
2018-02-04T11:04:26.222Z,1.24
2018-02-04T11:05:26.230Z,1.26
2018-02-04T11:06:26.270Z,1.26
2018-02-04T11:07:26.159Z,1.31
2018-02-04T11:08:26.180Z,1.27
2018-02-04T11:09:26.281Z,1.32
2018-02-04T11:10:26.260Z,1.32
2018-02-04T11:11:26.283Z,1.32
2018-02-04T11:12:26.172Z,1.34
2018-02-04T11:13:26.162Z,1.32
2018-02-04T11:14:26.258Z,1.33
2018-02-04T11:15:26.287Z,1.32
2018-02-04T11:16:26.890Z,1.34
2018-02-04T11:17:26.498Z,1.37
2018-02-04T11:18:26.214Z,1.38
2018-02-04T11:19:26.326Z,1.38
2018-02-04T11:20:26.272Z,1.39
2018-02-04T11:21:26.305Z,1.44
2018-02-04T11:22:26.367Z,1.44
2018-02-04T11:23:26.411Z,1.44
2018-02-04T11:24:26.518Z,1.44
2018-02-04T11:25:26.387Z,1.46
2018-02-04T11:26:26.271Z,1.48
2018-02-04T11:27:26.208Z,1.45
2018-02-04T11:28:26.226Z,1.44
2018-02-04T11:29:26.201Z,1.4
2018-02-04T11:30:26.186Z,1.45
2018-02-04T11:31:26.521Z,1.44
2018-02-04T11:32:26.377Z,1.49
2018-02-04T11:33:26.432Z,1.52
2018-02-04T11:34:26.156Z,1.55
2018-02-04T11:35:26.254Z,1.55
2018-02-04T11:36:26.238Z,1.52
2018-02-04T11:37:26.267Z,1.56
2018-02-04T11:38:26.215Z,1.56
2018-02-04T11:39:26.361Z,1.58
2018-02-04T11:40:26.309Z,1.58
2018-02-04T11:41:26.109Z,1.57
2018-02-04T11:42:26.455Z,1.61
2018-02-04T11:43:26.041Z,1.62
2018-02-04T11:44:25.893Z,1.61
2018-02-04T11:45:26.108Z,1.62
2018-02-04T11:46:26.014Z,1.63
2018-02-04T11:47:26.148Z,1.63
2018-02-04T11:48:25.935Z,1.65
2018-02-04T11:49:26.143Z,1.65
2018-02-04T11:50:26.004Z,1.69
2018-02-04T11:51:25.975Z,1.71
2018-02-04T11:52:26.039Z,1.71
2018-02-04T11:53:25.996Z,1.74
2018-02-04T11:54:26.040Z,1.74
2018-02-04T11:55:25.977Z,1.76
2018-02-04T11:56:26.032Z,1.78
2018-02-04T11:57:25.874Z,1.78
2018-02-04T11:58:26.015Z,1.8
2018-02-04T11:59:25.933Z,1.81
2018-02-04T12:00:25.935Z,1.8
2018-02-04T12:01:25.904Z,1.82
2018-02-04T12:02:26.085Z,1.81
2018-02-04T12:03:25.878Z,1.76
2018-02-04T12:04:26.125Z,1.75
2018-02-04T12:05:26.390Z,1.72
2018-02-04T12:06:26.046Z,1.77
2018-02-04T12:07:26.195Z,1.75
2018-02-04T12:08:25.981Z,1.74
2018-02-04T12:09:26.158Z,1.76
2018-02-04T12:10:26.439Z,1.74
2018-02-04T12:11:26.090Z,1.7
2018-02-04T12:12:26.885Z,1.7
2018-02-04T12:13:26.883Z,1.69
2018-02-04T12:14:26.717Z,1.69
2018-02-04T12:15:26.640Z,1.7
2018-02-04T12:16:26.845Z,1.69
2018-02-04T12:17:26.952Z,1.63
2018-02-04T12:18:27.035Z,1.64
2018-02-04T12:19:30.049Z,1.62
2018-02-04T12:20:27.806Z,1.62
2018-02-04T12:21:30.035Z,1.63
2018-02-04T12:22:26.827Z,1.64
2018-02-04T12:23:26.799Z,1.61
2018-02-04T12:24:26.857Z,1.62
2018-02-04T12:25:26.899Z,1.58
2018-02-04T12:26:26.877Z,1.62
2018-02-04T12:27:26.795Z,1.64
2018-02-04T12:28:26.854Z,1.62
2018-02-04T12:29:26.984Z,1.63
2018-02-04T12:30:26.872Z,1.61
2018-02-04T12:31:27.163Z,1.63
2018-02-04T12:32:27.743Z,1.63
2018-02-04T12:33:27.629Z,1.64
2018-02-04T12:34:27.304Z,1.61
2018-02-04T12:35:27.658Z,1.59
2018-02-04T12:36:27.488Z,1.63
2018-02-04T12:37:27.840Z,1.56
2018-02-04T12:38:39.417Z,1.5
2018-02-04T12:39:27.308Z,1.49
2018-02-04T12:40:27.408Z,1.5
2018-02-04T12:41:27.722Z,1.5
2018-02-04T12:42:27.573Z,1.49
2018-02-04T12:43:27.145Z,1.45
2018-02-04T12:44:26.675Z,1.45
2018-02-04T12:45:27.116Z,1.44
2018-02-04T12:46:26.810Z,1.45
2018-02-04T12:47:26.759Z,1.46
2018-02-04T12:48:27.163Z,1.44
2018-02-04T12:49:26.849Z,1.46
2018-02-04T12:50:27.160Z,1.45
2018-02-04T12:51:26.936Z,1.44
2018-02-04T12:52:26.792Z,1.44
2018-02-04T12:53:26.756Z,1.44
2018-02-04T12:54:27.114Z,1.39
2018-02-04T12:55:27.246Z,1.41
2018-02-04T12:56:26.892Z,1.4
2018-02-04T12:57:27.506Z,1.4
2018-02-04T12:58:26.715Z,1.39
2018-02-04T12:59:27.052Z,1.39
2018-02-04T13:00:27.209Z,1.38
2018-02-04T13:01:26.956Z,1.4
2018-02-04T13:02:27.047Z,1.44
2018-02-04T13:03:27.366Z,1.44
2018-02-04T13:04:27.062Z,1.41
2018-02-04T13:05:26.658Z,1.46
2018-02-04T13:06:26.944Z,1.44
2018-02-04T13:07:27.057Z,1.46
2018-02-04T13:08:27.347Z,1.46
2018-02-04T13:09:26.699Z,1.44
2018-02-04T13:10:27.924Z,1.44
2018-02-04T13:11:26.980Z,1.43
2018-02-04T13:12:27.127Z,1.44
2018-02-04T13:13:27.080Z,1.44
2018-02-04T13:14:26.982Z,1.44
2018-02-04T13:15:26.991Z,1.45
2018-02-04T13:16:26.595Z,1.47
2018-02-04T13:17:26.341Z,1.52
2018-02-04T13:18:26.263Z,1.51
2018-02-04T13:19:26.388Z,1.52
2018-02-04T13:20:26.500Z,1.46
2018-02-04T13:21:26.615Z,1.51
2018-02-04T13:22:26.442Z,1.48
2018-02-04T13:23:26.576Z,1.55
2018-02-04T13:24:26.422Z,1.48